createdAt,value
2018-08-03T00:00:46.055Z,32.62
2018-08-03T00:02:22.981Z,31.94
2018-08-03T00:04:00.060Z,32.48
2018-08-03T00:05:36.739Z,32.79
2018-08-03T00:07:20.458Z,32.47
2018-08-03T00:08:56.986Z,32.74
2018-08-03T00:10:33.820Z,32.35
2018-08-03T00:12:12.146Z,32.98
2018-08-03T00:13:48.528Z,33.04
2018-08-03T00:15:28.310Z,32.69
2018-08-03T00:17:06.758Z,32.52
2018-08-03T00:18:44.541Z,32.36
2018-08-03T00:20:23.796Z,32.79
2018-08-03T00:22:00.270Z,32.83
2018-08-03T00:23:37.064Z,32.38
2018-08-03T00:25:16.274Z,32.56
2018-08-03T00:26:54.284Z,32.99
2018-08-03T00:28:31.575Z,32.79
2018-08-03T00:30:09.153Z,32.54
2018-08-03T00:31:47.420Z,33.13
2018-08-03T00:33:23.968Z,33.45
2018-08-03T00:35:00.389Z,33.40
2018-08-03T00:36:37.369Z,33.18
2018-08-03T00:38:14.654Z,32.89
2018-08-03T00:39:51.805Z,33.24
2018-08-03T00:41:28.333Z,33.13
2018-08-03T00:43:05.478Z,33.63
2018-08-03T00:44:44.437Z,33.19
2018-08-03T00:46:32.975Z,32.97
2018-08-03T00:55:46.644Z,33.29
2018-08-03T01:01:16.080Z,33.83
2018-08-03T01:02:52.436Z,33.67
2018-08-03T01:04:28.880Z,33.29
2018-08-03T01:06:05.425Z,33.88
2018-08-03T01:07:43.678Z,33.35
2018-08-03T01:09:20.384Z,33.48
2018-08-03T01:10:56.789Z,33.54
2018-08-03T01:12:33.257Z,34.24
2018-08-03T01:14:11.141Z,33.80
2018-08-03T01:15:47.942Z,34.00
2018-08-03T01:17:24.472Z,34.00
2018-08-03T01:19:01.408Z,34.41
2018-08-03T01:20:38.316Z,34.25
2018-08-03T01:22:14.800Z,33.92
2018-08-03T01:23:51.945Z,33.89
2018-08-03T01:25:28.767Z,34.53
2018-08-03T01:27:06.996Z,33.75
2018-08-03T01:28:43.780Z,34.27
2018-08-03T01:30:20.612Z,34.40
2018-08-03T01:31:57.437Z,33.92
2018-08-03T01:33:34.297Z,34.77
2018-08-03T01:35:10.659Z,33.91
2018-08-03T01:36:47.199Z,34.54
2018-08-03T01:38:23.555Z,34.11
2018-08-03T01:39:59.963Z,34.07
2018-08-03T01:41:36.491Z,34.65
2018-08-03T01:43:12.792Z,34.99
2018-08-03T01:44:49.411Z,34.91
2018-08-03T01:46:25.841Z,34.35
2018-08-03T01:48:02.257Z,34.58
2018-08-03T01:49:38.650Z,34.50
2018-08-03T01:51:15.037Z,34.86
2018-08-03T01:52:58.493Z,34.70
2018-08-03T01:54:34.891Z,34.45
2018-08-03T01:56:11.304Z,34.82
2018-08-03T01:57:47.782Z,34.52
2018-08-03T01:59:24.763Z,34.96
2018-08-03T02:01:01.732Z,34.85
2018-08-03T02:02:38.325Z,34.58
2018-08-03T02:04:15.170Z,35.43
2018-08-03T02:05:52.106Z,34.69
2018-08-03T02:07:28.553Z,34.94
2018-08-03T02:09:07.075Z,34.83
2018-08-03T02:10:43.401Z,35.28
2018-08-03T02:12:20.346Z,35.49
2018-08-03T02:13:56.796Z,35.50
2018-08-03T02:15:33.581Z,35.34
2018-08-03T02:17:10.083Z,35.28
2018-08-03T02:18:47.581Z,35.33
2018-08-03T02:20:23.954Z,35.48
2018-08-03T02:22:00.443Z,35.76
2018-08-03T02:23:36.882Z,35.56
2018-08-03T02:25:13.824Z,35.46
2018-08-03T02:26:50.300Z,35.96
2018-08-03T02:28:27.654Z,36.01
2018-08-03T02:30:04.826Z,35.60
2018-08-03T02:31:43.937Z,35.20
2018-08-03T02:33:20.454Z,35.53
2018-08-03T02:34:56.929Z,35.63
2018-08-03T02:36:33.436Z,36.01
2018-08-03T02:38:10.371Z,36.23
2018-08-03T02:39:46.896Z,35.64
2018-08-03T02:41:23.303Z,36.11
2018-08-03T02:42:59.971Z,36.07
2018-08-03T02:44:36.885Z,35.85
2018-08-03T02:46:13.609Z,35.97
2018-08-03T02:47:49.987Z,36.52
2018-08-03T02:49:26.952Z,36.32
2018-08-03T02:51:03.739Z,36.11
2018-08-03T02:52:41.733Z,36.41
2018-08-03T02:54:19.591Z,36.58
2018-08-03T02:55:57.107Z,36.23
2018-08-03T02:57:33.770Z,36.60
2018-08-03T02:59:10.281Z,36.78
2018-08-03T03:00:46.734Z,36.71
2018-08-03T03:02:23.079Z,36.86
2018-08-03T03:03:59.862Z,36.92
2018-08-03T03:05:36.204Z,36.93
2018-08-03T03:07:13.351Z,36.27
2018-08-03T03:08:49.768Z,36.69
2018-08-03T03:10:27.137Z,36.68
2018-08-03T03:12:03.852Z,36.30
2018-08-03T03:13:40.131Z,36.49
2018-08-03T03:15:17.096Z,36.75
2018-08-03T03:16:53.895Z,36.58
2018-08-03T03:18:30.357Z,37.26
2018-08-03T03:20:06.899Z,37.05
2018-08-03T03:21:43.833Z,36.85
2018-08-03T03:23:20.726Z,36.26
2018-08-03T03:24:57.854Z,37.15
2018-08-03T03:26:34.223Z,36.70
2018-08-03T03:28:10.597Z,37.13
2018-08-03T03:29:47.362Z,36.94
2018-08-03T03:31:25.206Z,36.80
2018-08-03T03:33:01.627Z,37.53
2018-08-03T03:34:37.934Z,36.93
2018-08-03T03:36:14.323Z,37.56
2018-08-03T03:37:50.536Z,37.36
2018-08-03T03:39:27.052Z,36.99
2018-08-03T03:41:03.472Z,37.68
2018-08-03T03:42:40.180Z,37.43
2018-08-03T03:44:16.417Z,37.09
2018-08-03T03:45:53.104Z,37.39
2018-08-03T03:47:29.350Z,37.61
2018-08-03T03:49:06.329Z,37.29
2018-08-03T03:50:42.776Z,37.81
2018-08-03T03:52:19.105Z,37.66
2018-08-03T03:53:56.039Z,37.65
2018-08-03T03:55:33.585Z,37.62
2018-08-03T03:57:10.068Z,37.59
2018-08-03T03:58:46.370Z,37.28
2018-08-03T04:00:23.089Z,37.38
2018-08-03T04:02:00.220Z,38.07
2018-08-03T04:03:36.977Z,37.57
2018-08-03T04:05:13.711Z,37.86
2018-08-03T04:06:50.891Z,37.30
2018-08-03T04:08:28.310Z,37.71
2018-08-03T04:10:05.769Z,37.75
2018-08-03T04:11:42.806Z,37.73
2018-08-03T04:13:21.584Z,37.70
2018-08-03T04:14:58.121Z,37.74
2018-08-03T04:16:34.644Z,37.47
2018-08-03T04:18:17.338Z,38.06
2018-08-03T04:19:54.707Z,37.98
2018-08-03T04:21:31.321Z,37.87
2018-08-03T04:23:08.125Z,37.51
2018-08-03T04:24:44.655Z,37.58
2018-08-03T04:26:21.060Z,37.59
2018-08-03T04:27:57.739Z,37.78
2018-08-03T04:29:35.480Z,37.65
2018-08-03T04:31:12.481Z,38.37
2018-08-03T04:32:48.765Z,38.39
2018-08-03T04:34:26.032Z,37.78
2018-08-03T04:36:02.396Z,38.21
2018-08-03T04:37:39.578Z,38.59
2018-08-03T04:39:15.952Z,38.47
2018-08-03T04:40:53.639Z,38.62
2018-08-03T04:42:30.059Z,38.02
2018-08-03T04:44:08.110Z,37.97
2018-08-03T04:45:45.633Z,38.67
2018-08-03T04:47:22.410Z,38.67
2018-08-03T04:48:58.792Z,38.14
2018-08-03T04:50:35.670Z,38.13
2018-08-03T04:52:12.097Z,38.10
2018-08-03T04:53:48.923Z,38.88
2018-08-03T04:55:25.302Z,38.90
2018-08-03T04:57:02.213Z,38.67
2018-08-03T04:58:41.390Z,38.62
2018-08-03T05:00:18.740Z,38.23
2018-08-03T05:01:55.611Z,38.38
2018-08-03T05:03:32.818Z,38.96
2018-08-03T05:05:09.852Z,38.29
2018-08-03T05:06:49.242Z,38.16
2018-08-03T05:08:25.585Z,38.78
2018-08-03T05:10:08.626Z,38.54
2018-08-03T05:11:45.402Z,38.89
2018-08-03T05:13:22.042Z,39.07
2018-08-03T05:14:58.328Z,38.83
2018-08-03T05:16:35.833Z,38.74
2018-08-03T05:18:12.175Z,39.11
2018-08-03T05:19:48.847Z,38.96
2018-08-03T05:21:25.775Z,38.36
2018-08-03T05:23:02.246Z,38.44
2018-08-03T05:24:40.094Z,39.29
2018-08-03T05:26:17.642Z,39.41
2018-08-03T05:27:54.136Z,38.50
2018-08-03T05:29:30.300Z,38.62
2018-08-03T05:31:07.848Z,39.18
2018-08-03T05:32:45.648Z,38.79
2018-08-03T05:34:23.055Z,38.84
2018-08-03T05:35:59.677Z,39.22
2018-08-03T05:37:36.310Z,38.74
2018-08-03T05:39:13.127Z,38.95
2018-08-03T05:40:49.580Z,39.30
2018-08-03T05:42:26.010Z,38.83
2018-08-03T05:44:02.653Z,39.26
2018-08-03T05:45:40.002Z,39.05
2018-08-03T05:47:17.455Z,39.18
2018-08-03T05:48:59.565Z,39.15
2018-08-03T05:50:41.384Z,38.82
2018-08-03T05:52:18.473Z,38.70
2018-08-03T05:53:59.631Z,38.37
2018-08-03T05:55:48.185Z,38.55
2018-08-03T05:57:24.887Z,38.23
2018-08-03T05:59:01.819Z,38.83
2018-08-03T06:00:38.458Z,38.88
2018-08-03T06:02:15.716Z,38.48
2018-08-03T06:03:53.715Z,38.69
2018-08-03T06:05:31.248Z,38.26
2018-08-03T06:07:07.541Z,38.37
2018-08-03T06:08:44.013Z,38.33
2018-08-03T06:10:20.386Z,38.80
2018-08-03T06:11:57.162Z,39.29
2018-08-03T06:13:33.651Z,38.27
2018-08-03T06:15:14.602Z,38.91
2018-08-03T06:16:50.929Z,38.50
2018-08-03T06:20:07.590Z,39.04
2018-08-03T06:21:45.598Z,38.68
2018-08-03T06:23:22.877Z,39.05
2018-08-03T06:25:01.341Z,38.74
2018-08-03T06:26:38.595Z,38.32
2018-08-03T06:28:16.562Z,38.63
2018-08-03T06:29:53.674Z,38.35
2018-08-03T06:31:37.396Z,38.68
2018-08-03T06:33:13.622Z,38.47
2018-08-03T06:34:51.009Z,38.05
2018-08-03T06:36:28.922Z,38.83
2018-08-03T06:38:05.756Z,38.59
2018-08-03T06:39:42.037Z,38.04
2018-08-03T06:41:18.342Z,38.28
2018-08-03T06:42:55.656Z,38.41
2018-08-03T06:44:33.601Z,38.70
2018-08-03T06:46:10.208Z,38.36
2018-08-03T06:47:47.110Z,38.38
2018-08-03T06:49:24.667Z,38.53
2018-08-03T06:51:00.994Z,38.12
2018-08-03T06:52:37.287Z,37.72
2018-08-03T06:54:13.577Z,38.25
2018-08-03T06:55:50.595Z,38.11
2018-08-03T06:57:26.960Z,37.66
2018-08-03T06:59:04.003Z,37.77
2018-08-03T07:00:41.036Z,37.62
2018-08-03T07:02:18.594Z,38.53
2018-08-03T07:03:54.933Z,38.19
2018-08-03T07:05:30.929Z,38.00
2018-08-03T07:07:07.376Z,38.31
2018-08-03T07:08:44.910Z,37.43
2018-08-03T07:10:21.245Z,38.27
2018-08-03T07:11:59.263Z,38.26
2018-08-03T07:13:36.746Z,37.80
2018-08-03T07:15:15.205Z,37.41
2018-08-03T07:16:53.195Z,37.36
2018-08-03T07:18:29.576Z,38.02
2018-08-03T07:20:08.080Z,38.37
2018-08-03T07:21:45.819Z,38.09
2018-08-03T07:23:25.344Z,37.76
2018-08-03T07:25:02.123Z,37.89
2018-08-03T07:26:38.536Z,37.74
2018-08-03T07:28:15.309Z,37.34
2018-08-03T07:29:51.589Z,37.52
2018-08-03T07:31:28.847Z,37.70
2018-08-03T07:33:06.136Z,37.17
2018-08-03T07:34:43.583Z,37.10
2018-08-03T07:36:20.545Z,37.27
2018-08-03T07:37:57.041Z,37.64
2018-08-03T07:39:36.159Z,37.56
2018-08-03T07:41:14.218Z,37.29
2018-08-03T07:42:50.703Z,37.40
2018-08-03T07:44:30.654Z,37.48
2018-08-03T07:46:11.388Z,37.85
2018-08-03T07:47:47.790Z,37.27
2018-08-03T07:49:34.044Z,36.96
2018-08-03T07:51:11.524Z,37.24
2018-08-03T07:52:50.454Z,37.48
2018-08-03T07:54:27.097Z,36.96
2018-08-03T07:56:05.121Z,36.98
2018-08-03T07:57:41.567Z,37.55
2018-08-03T07:59:20.643Z,36.89
2018-08-03T08:00:57.303Z,36.92
2018-08-03T08:02:35.846Z,37.63
2018-08-03T08:04:13.200Z,37.58
2018-08-03T08:05:55.059Z,36.79
2018-08-03T08:07:31.491Z,36.85
2018-08-03T08:09:12.328Z,37.41
2018-08-03T08:10:49.687Z,37.13
2018-08-03T08:12:28.471Z,37.21
2018-08-03T08:14:10.507Z,37.53
2018-08-03T08:15:47.525Z,36.56
2018-08-03T08:17:24.998Z,37.47
2018-08-03T08:19:01.747Z,37.55
2018-08-03T08:20:40.339Z,37.34
2018-08-03T08:22:19.898Z,37.66
2018-08-03T08:23:58.386Z,36.94
2018-08-03T08:25:37.075Z,37.46
2018-08-03T08:27:17.724Z,36.53
2018-08-03T08:28:56.235Z,36.90
2018-08-03T08:30:38.599Z,36.53
2018-08-03T08:32:27.479Z,36.41
2018-08-03T08:34:05.163Z,36.86
2018-08-03T08:35:45.315Z,36.75
2018-08-03T08:37:25.887Z,36.57
2018-08-03T08:39:11.379Z,37.05
2018-08-03T08:40:47.818Z,36.86
2018-08-03T08:42:24.578Z,36.65
2018-08-03T08:44:01.287Z,37.13
2018-08-03T08:45:40.790Z,36.77
2018-08-03T08:47:18.735Z,36.93
2018-08-03T08:49:03.003Z,37.09
2018-08-03T08:50:42.776Z,36.73
2018-08-03T08:52:20.269Z,36.21
2018-08-03T08:53:56.621Z,36.50
2018-08-03T08:55:34.905Z,36.81
2018-08-03T08:57:13.497Z,36.91
2018-08-03T08:58:55.585Z,36.33
2018-08-03T09:00:35.556Z,36.53
2018-08-03T09:02:14.304Z,36.22
2018-08-03T09:03:53.413Z,36.26
2018-08-03T09:05:32.260Z,36.35
2018-08-03T09:07:11.375Z,36.22
2018-08-03T09:08:51.391Z,36.31
2018-08-03T09:10:32.289Z,36.50
2018-08-03T09:12:09.950Z,36.84
2018-08-03T09:14:01.571Z,36.37
2018-08-03T09:15:47.213Z,36.69
2018-08-03T09:17:25.306Z,36.71
2018-08-03T09:19:03.791Z,36.24
2018-08-03T09:20:41.137Z,36.34
2018-08-03T09:22:18.393Z,35.92
2018-08-03T09:23:54.983Z,35.91
2018-08-03T09:25:33.401Z,36.45
2018-08-03T09:27:12.514Z,35.92
2018-08-03T09:28:51.337Z,36.57
2018-08-03T09:30:31.670Z,36.08
2018-08-03T09:32:09.540Z,36.55
2018-08-03T09:33:46.633Z,36.60
2018-08-03T09:35:23.703Z,36.60
2018-08-03T09:37:00.142Z,36.64
2018-08-03T09:38:37.734Z,36.35
2018-08-03T09:40:17.321Z,36.18
2018-08-03T09:41:56.253Z,35.74
2018-08-03T09:43:34.940Z,35.71
2018-08-03T09:45:50.557Z,36.30
2018-08-03T09:47:44.589Z,35.81
2018-08-03T09:49:25.513Z,35.90
2018-08-03T09:51:12.547Z,35.87
2018-08-03T09:53:11.287Z,36.24
2018-08-03T09:54:51.634Z,35.55
2018-08-03T09:56:28.280Z,36.19
2018-08-03T09:58:07.964Z,36.22
2018-08-03T09:59:45.509Z,36.01
2018-08-03T10:01:22.028Z,36.31
2018-08-03T10:03:01.555Z,35.79
2018-08-03T10:04:39.665Z,35.91
2018-08-03T10:06:16.540Z,36.23
2018-08-03T10:07:56.641Z,36.11
2018-08-03T10:09:34.519Z,35.65
2018-08-03T10:11:12.309Z,35.48
2018-08-03T10:12:52.521Z,36.14
2018-08-03T10:14:32.629Z,36.22
2018-08-03T10:16:11.633Z,35.85
2018-08-03T10:17:50.662Z,35.84
2018-08-03T10:19:29.527Z,35.43
2018-08-03T10:21:05.881Z,36.17
2018-08-03T10:22:43.257Z,35.88
2018-08-03T10:24:22.448Z,35.34
2018-08-03T10:26:01.294Z,35.96
2018-08-03T10:27:39.798Z,35.45
2018-08-03T10:29:16.750Z,35.72
2018-08-03T10:30:55.314Z,35.94
2018-08-03T10:32:33.902Z,35.77
2018-08-03T10:34:11.772Z,35.90
2018-08-03T10:36:01.537Z,36.22
2018-08-03T10:37:38.603Z,35.50
2018-08-03T10:39:15.984Z,35.52
2018-08-03T10:40:55.649Z,35.89
2018-08-03T10:42:33.826Z,35.57
2018-08-03T10:44:11.671Z,35.89
2018-08-03T10:45:49.801Z,35.58
2018-08-03T10:47:26.299Z,35.73
2018-08-03T10:49:04.293Z,35.22
2018-08-03T10:50:42.626Z,35.19
2018-08-03T10:52:20.701Z,35.41
2018-08-03T10:53:57.742Z,35.52
2018-08-03T10:55:35.339Z,34.97
2018-08-03T10:57:13.701Z,35.12
2018-08-03T10:58:50.640Z,35.22
2018-08-03T11:00:31.022Z,35.63
2018-08-03T11:02:10.557Z,35.36
2018-08-03T11:03:47.685Z,35.57
2018-08-03T11:05:25.599Z,35.13
2018-08-03T11:07:01.928Z,35.27
2018-08-03T11:08:40.080Z,35.30
2018-08-03T11:10:17.858Z,35.62
2018-08-03T11:11:55.517Z,35.49
2018-08-03T11:13:32.117Z,35.41
2018-08-03T11:15:09.617Z,34.98
2018-08-03T11:16:48.116Z,35.47
2018-08-03T11:18:24.449Z,35.29
2018-08-03T11:20:00.916Z,35.50
2018-08-03T11:21:38.768Z,35.52
2018-08-03T11:23:18.761Z,34.75
2018-08-03T11:24:55.888Z,35.02
2018-08-03T11:26:32.793Z,35.22
2018-08-03T11:28:10.659Z,34.89
2018-08-03T11:29:55.244Z,35.09
2018-08-03T11:31:36.895Z,34.84
2018-08-03T11:33:14.251Z,35.36
2018-08-03T11:34:51.703Z,34.62
2018-08-03T11:36:29.354Z,34.37
2018-08-03T11:38:09.753Z,35.02
2018-08-03T11:39:50.564Z,35.09
2018-08-03T11:41:29.552Z,34.87
2018-08-03T11:43:07.018Z,34.59
2018-08-03T11:44:46.197Z,34.78
2018-08-03T11:46:25.346Z,35.03
2018-08-03T11:48:04.498Z,35.38
2018-08-03T11:49:41.021Z,34.51
2018-08-03T11:51:20.327Z,34.69
2018-08-03T11:52:58.466Z,34.85
2018-08-03T11:54:38.752Z,35.05
2018-08-03T11:56:18.396Z,34.63
2018-08-03T11:58:01.042Z,34.56
2018-08-03T11:59:42.833Z,34.91
2018-08-03T12:01:21.683Z,34.78
2018-08-03T12:02:58.648Z,34.67
2018-08-03T12:04:43.529Z,34.65
2018-08-03T12:06:24.904Z,34.32
2018-08-03T12:08:04.482Z,34.29
2018-08-03T12:09:42.381Z,34.60
2018-08-03T12:11:20.937Z,34.21
2018-08-03T12:12:58.681Z,34.25
2018-08-03T12:14:36.730Z,34.69
2018-08-03T12:16:13.392Z,34.47
2018-08-03T12:17:51.219Z,34.21
2018-08-03T12:19:35.173Z,34.04
2018-08-03T12:21:13.849Z,34.45
2018-08-03T12:22:55.899Z,34.50
2018-08-03T12:24:34.301Z,34.59
2018-08-03T12:26:13.046Z,34.14
2018-08-03T12:27:53.892Z,33.98
2018-08-03T12:29:30.497Z,34.11
2018-08-03T12:31:07.623Z,34.15
2018-08-03T12:32:50.619Z,34.27
2018-08-03T12:34:30.576Z,34.30
2018-08-03T12:36:20.652Z,34.18
2018-08-03T12:38:03.114Z,33.86
2018-08-03T12:39:40.695Z,34.31
2018-08-03T12:41:17.400Z,34.20
2018-08-03T12:42:56.299Z,34.29
2018-08-03T12:44:35.428Z,34.04
2018-08-03T12:46:15.643Z,34.33
2018-08-03T12:47:59.349Z,33.71
2018-08-03T12:49:40.863Z,33.66
2018-08-03T12:51:18.468Z,34.08
2018-08-03T12:52:57.460Z,33.98
2018-08-03T12:54:35.863Z,34.13
2018-08-03T12:56:14.780Z,33.67
2018-08-03T12:57:54.611Z,33.59
2018-08-03T12:59:33.489Z,33.55
2018-08-03T13:01:13.671Z,34.03
2018-08-03T13:02:53.654Z,33.97
2018-08-03T13:04:31.303Z,34.00
2018-08-03T13:06:10.622Z,33.33
2018-08-03T13:07:47.643Z,33.83
2018-08-03T13:09:26.375Z,33.44
2018-08-03T13:11:05.662Z,33.38
2018-08-03T13:12:42.167Z,33.37
2018-08-03T13:14:18.592Z,33.79
2018-08-03T13:15:56.442Z,33.77
2018-08-03T13:17:34.248Z,33.58
2018-08-03T13:19:12.555Z,33.60
2018-08-03T13:20:50.215Z,33.45
2018-08-03T13:22:26.608Z,33.12
2018-08-03T13:24:05.293Z,33.00
2018-08-03T13:25:44.694Z,33.01
2018-08-03T13:27:22.069Z,33.33
2018-08-03T13:28:59.122Z,33.44
2018-08-03T13:30:39.875Z,32.99
2018-08-03T13:32:17.726Z,33.27
2018-08-03T13:33:54.917Z,33.22
2018-08-03T13:35:34.358Z,32.75
2018-08-03T13:37:11.951Z,33.30
2018-08-03T13:38:48.400Z,32.73
2018-08-03T13:40:29.300Z,32.78
2018-08-03T13:42:07.371Z,32.64
2018-08-03T13:43:45.176Z,33.18
2018-08-03T13:45:22.979Z,32.48
2018-08-03T13:48:27.853Z,32.89
2018-08-03T13:50:05.097Z,32.93
2018-08-03T13:51:41.823Z,32.98
2018-08-03T13:53:19.244Z,32.44
2018-08-03T13:54:56.579Z,32.42
2018-08-03T13:56:33.112Z,32.17
2018-08-03T13:58:10.483Z,32.77
2018-08-03T13:59:57.650Z,32.18
2018-08-03T14:01:51.839Z,32.77
2018-08-03T14:03:30.812Z,32.76
2018-08-03T14:05:09.789Z,32.12
2018-08-03T14:06:48.568Z,32.50
2018-08-03T14:08:25.794Z,32.12
2018-08-03T14:10:11.963Z,31.93
2018-08-03T14:11:56.342Z,32.44
2018-08-03T14:13:33.671Z,31.98
2018-08-03T14:15:10.636Z,31.71
2018-08-03T14:17:33.841Z,32.35
2018-08-03T14:19:10.840Z,32.30
2018-08-03T14:20:47.385Z,31.85
2018-08-03T14:22:23.829Z,32.31
2018-08-03T14:24:00.461Z,32.22
2018-08-03T14:25:39.580Z,32.14
2018-08-03T14:27:17.810Z,32.09
2018-08-03T14:30:44.080Z,31.78
2018-08-03T14:32:21.587Z,31.51
2018-08-03T14:33:58.039Z,31.50
2018-08-03T14:35:45.679Z,31.90
2018-08-03T14:37:25.679Z,31.89
2018-08-03T14:39:06.105Z,31.76
2018-08-03T14:40:44.625Z,31.85
2018-08-03T14:42:23.525Z,31.37
2018-08-03T14:44:00.400Z,31.82
2018-08-03T14:45:37.272Z,31.69
2018-08-03T14:47:15.662Z,31.63
2018-08-03T14:48:57.457Z,31.08
2018-08-03T14:50:34.631Z,31.68
2018-08-03T14:52:11.441Z,31.35
2018-08-03T14:53:51.513Z,31.70
2018-08-03T14:55:30.643Z,31.54
2018-08-03T14:57:09.676Z,31.41
2018-08-03T14:58:46.116Z,30.90
2018-08-03T15:00:27.583Z,30.96
2018-08-03T15:02:04.619Z,31.40
2018-08-03T15:03:41.151Z,30.81
2018-08-03T15:05:19.921Z,31.33
2018-08-03T15:06:56.816Z,31.22
2018-08-03T15:08:33.780Z,30.62
2018-08-03T15:10:10.915Z,30.88
2018-08-03T15:11:47.316Z,31.23
2018-08-03T15:13:25.895Z,31.12
2018-08-03T15:15:03.455Z,31.16
2018-08-03T15:16:41.097Z,31.16
2018-08-03T15:18:18.254Z,31.19
2018-08-03T15:19:55.147Z,30.48
2018-08-03T15:21:32.444Z,30.53
2018-08-03T15:23:09.612Z,30.66
2018-08-03T15:24:47.023Z,30.95
2018-08-03T15:26:24.689Z,30.91
2018-08-03T15:28:02.632Z,30.36
2018-08-03T15:29:39.116Z,30.30
2018-08-03T15:31:16.357Z,30.94
2018-08-03T15:32:52.738Z,30.77
2018-08-03T15:34:33.929Z,30.73
2018-08-03T15:36:10.666Z,30.18
2018-08-03T15:37:47.375Z,30.61
2018-08-03T15:39:24.232Z,30.15
2018-08-03T15:41:01.818Z,30.13
2018-08-03T15:42:39.406Z,30.04
2018-08-03T15:44:15.702Z,29.95
2018-08-03T15:45:55.609Z,30.02
2018-08-03T15:47:32.513Z,30.04
2018-08-03T15:49:10.647Z,30.45
2018-08-03T15:50:47.823Z,30.52
2018-08-03T15:52:26.337Z,29.87
2018-08-03T15:54:05.922Z,30.01
2018-08-03T15:55:43.816Z,30.26
2018-08-03T15:57:21.240Z,29.86
2018-08-03T15:58:58.081Z,30.24
2018-08-03T16:00:35.059Z,30.01
2018-08-03T16:02:12.225Z,30.21
2018-08-03T16:03:48.647Z,30.22
2018-08-03T16:05:25.920Z,30.04
2018-08-03T16:07:03.047Z,30.13
2018-08-03T16:08:41.417Z,30.11
2018-08-03T16:10:19.515Z,29.57
2018-08-03T16:11:57.552Z,29.51
2018-08-03T16:13:34.355Z,29.57
2018-08-03T16:15:14.551Z,29.62
2018-08-03T16:16:51.765Z,30.03
2018-08-03T16:18:29.174Z,29.94
2018-08-03T16:20:06.510Z,29.77
2018-08-03T16:21:45.220Z,29.66
2018-08-03T16:23:22.626Z,29.33
2018-08-03T16:24:59.426Z,29.40
2018-08-03T16:26:35.922Z,29.70
2018-08-03T16:28:13.133Z,29.72
2018-08-03T16:29:49.556Z,29.76
2018-08-03T16:31:26.736Z,29.79
2018-08-03T16:33:03.743Z,29.20
2018-08-03T16:34:41.781Z,29.58
2018-08-03T16:36:20.321Z,29.24
2018-08-03T16:38:02.524Z,29.65
2018-08-03T16:39:39.115Z,29.09
2018-08-03T16:41:16.138Z,29.09
2018-08-03T16:42:56.413Z,29.45
2018-08-03T16:44:33.327Z,29.51
2018-08-03T16:46:11.704Z,29.43
2018-08-03T16:47:49.764Z,28.98
2018-08-03T16:49:27.262Z,29.01
2018-08-03T16:51:06.764Z,29.12
2018-08-03T16:52:45.873Z,29.37
2018-08-03T16:54:23.437Z,28.89
2018-08-03T16:56:00.914Z,28.92
2018-08-03T16:57:37.763Z,28.76
2018-08-03T16:59:14.250Z,28.81
2018-08-03T17:00:51.635Z,29.00
2018-08-03T17:02:29.431Z,28.67
2018-08-03T17:04:06.886Z,28.96
2018-08-03T17:05:43.454Z,28.80
2018-08-03T17:07:19.920Z,29.04
2018-08-03T17:09:00.710Z,28.96
2018-08-03T17:10:40.222Z,28.59
2018-08-03T17:12:20.020Z,29.10
2018-08-03T17:14:00.657Z,28.72
2018-08-03T17:15:39.839Z,28.65
2018-08-03T17:17:20.546Z,29.00
2018-08-03T17:19:02.606Z,28.55
2018-08-03T17:20:40.593Z,28.60
2018-08-03T17:22:17.602Z,29.11
2018-08-03T17:23:54.092Z,28.60
2018-08-03T17:25:33.876Z,29.08
2018-08-03T17:27:10.986Z,28.75
2018-08-03T17:28:53.273Z,28.53
2018-08-03T17:30:36.329Z,29.01
2018-08-03T17:32:13.064Z,28.50
2018-08-03T17:33:50.993Z,29.13
2018-08-03T17:35:28.393Z,28.55
2018-08-03T17:37:06.437Z,28.88
2018-08-03T17:38:43.560Z,28.47
2018-08-03T17:40:21.430Z,29.02
2018-08-03T17:42:09.667Z,28.45
2018-08-03T17:43:47.339Z,28.85
2018-08-03T17:45:25.231Z,28.97
2018-08-03T17:47:02.597Z,28.40
2018-08-03T17:48:40.293Z,28.92
2018-08-03T17:50:19.257Z,28.31
2018-08-03T17:51:58.858Z,29.04
2018-08-03T17:53:46.500Z,29.18
2018-08-03T17:55:23.470Z,28.62
2018-08-03T17:57:00.492Z,28.61
2018-08-03T17:58:37.733Z,28.29
2018-08-03T18:00:16.633Z,28.60
2018-08-03T18:02:07.546Z,29.27
2018-08-03T18:03:45.325Z,28.13
2018-08-03T18:05:22.299Z,28.41
2018-08-03T18:07:01.597Z,28.08
2018-08-03T18:08:40.762Z,28.25
2018-08-03T18:11:53.564Z,28.50
2018-08-03T18:13:33.210Z,28.88
2018-08-03T18:16:58.403Z,28.41
2018-08-03T18:18:35.636Z,28.90
2018-08-03T18:20:16.303Z,28.66
2018-08-03T18:21:56.428Z,29.01
2018-08-03T18:23:35.581Z,28.29
2018-08-03T18:25:12.068Z,28.23
2018-08-03T18:26:52.589Z,28.76
2018-08-03T18:28:31.703Z,28.84
2018-08-03T18:30:10.555Z,28.21
2018-08-03T18:31:53.544Z,28.88
2018-08-03T18:33:30.203Z,28.26
2018-08-03T18:35:08.436Z,28.58
2018-08-03T18:36:45.829Z,29.21
2018-08-03T18:38:23.352Z,28.37
2018-08-03T18:39:59.865Z,29.02
2018-08-03T18:41:37.765Z,28.30
2018-08-03T18:43:14.796Z,28.69
2018-08-03T18:44:52.428Z,28.63
2018-08-03T18:46:31.254Z,29.27
2018-08-03T18:48:09.904Z,28.92
2018-08-03T18:49:48.498Z,28.86
2018-08-03T18:51:26.583Z,28.33
2018-08-03T18:53:05.908Z,28.24
2018-08-03T18:54:42.506Z,28.71
2018-08-03T18:56:19.738Z,28.71
2018-08-03T18:57:58.557Z,28.61
2018-08-03T18:59:35.528Z,28.18
2018-08-03T19:01:15.607Z,28.89
2018-08-03T19:02:52.981Z,28.44
2018-08-03T19:04:29.490Z,29.03
2018-08-03T19:06:08.479Z,28.70
2018-08-03T19:07:47.822Z,29.07
2018-08-03T19:09:27.309Z,28.73
2018-08-03T19:11:06.290Z,28.94
2018-08-03T19:12:46.021Z,28.88
2018-08-03T19:14:27.649Z,28.60
2018-08-03T19:16:24.208Z,28.26
2018-08-03T19:18:01.191Z,29.01
2018-08-03T19:19:44.434Z,28.34
2018-08-03T19:21:23.588Z,28.26
2018-08-03T19:23:03.068Z,28.53
2018-08-03T19:24:39.949Z,28.67
2018-08-03T19:26:16.306Z,28.28
2018-08-03T19:28:27.391Z,28.60
2018-08-03T19:30:09.232Z,28.98
2018-08-03T19:31:47.210Z,28.43
2018-08-03T19:33:24.545Z,29.13
2018-08-03T19:35:01.044Z,28.40
2018-08-03T19:36:41.643Z,28.66
2018-08-03T19:38:20.348Z,28.97
2018-08-03T19:39:57.455Z,28.77
2018-08-03T19:41:36.457Z,29.13
2018-08-03T19:43:14.349Z,28.34
2018-08-03T19:44:50.843Z,28.34
2018-08-03T19:46:29.764Z,28.75
2018-08-03T19:48:12.071Z,28.25
2018-08-03T19:49:49.622Z,28.52
2018-08-03T19:51:26.943Z,28.71
2018-08-03T19:53:09.639Z,28.34
2018-08-03T19:54:50.296Z,28.74
2018-08-03T19:56:33.576Z,28.97
2018-08-03T19:58:10.542Z,28.77
2018-08-03T19:59:59.345Z,28.27
2018-08-03T20:01:39.226Z,28.73
2018-08-03T20:03:18.593Z,28.65
2018-08-03T20:04:58.605Z,28.93
2018-08-03T20:06:36.348Z,29.22
2018-08-03T20:08:12.945Z,28.37
2018-08-03T20:09:57.596Z,28.42
2018-08-03T20:11:34.035Z,28.59
2018-08-03T20:13:14.037Z,28.95
2018-08-03T20:15:17.788Z,29.27
2018-08-03T20:17:01.110Z,28.72
2018-08-03T20:18:46.575Z,28.91
2018-08-03T20:20:25.958Z,29.23
2018-08-03T20:22:06.669Z,28.94
2018-08-03T20:23:49.636Z,29.20
2018-08-03T20:25:34.593Z,29.17
2018-08-03T20:27:12.533Z,28.45
2018-08-03T20:31:04.144Z,28.60
2018-08-03T20:32:43.418Z,28.62
2018-08-03T20:34:22.207Z,28.63
2018-08-03T20:36:02.267Z,29.02
2018-08-03T20:37:40.215Z,28.58
2018-08-03T20:39:18.571Z,28.53
2018-08-03T20:40:55.866Z,28.82
2018-08-03T20:42:33.274Z,29.55
2018-08-03T20:44:12.679Z,28.98
2018-08-03T20:45:50.294Z,29.31
2018-08-03T20:47:28.419Z,28.93
2018-08-03T20:49:10.404Z,28.95
2018-08-03T20:50:47.748Z,29.47
2018-08-03T20:52:34.459Z,29.17
2018-08-03T20:54:13.469Z,28.61
2018-08-03T20:55:50.916Z,29.07
2018-08-03T20:57:28.832Z,28.92
2018-08-03T20:59:09.362Z,29.21
2018-08-03T21:00:48.520Z,28.97
2018-08-03T21:02:26.847Z,29.57
2018-08-03T21:05:55.514Z,29.25
2018-08-03T21:07:40.632Z,29.68
2018-08-03T21:09:18.738Z,29.23
2018-08-03T21:10:55.948Z,29.62
2018-08-03T21:12:33.060Z,29.21
2018-08-03T21:14:13.568Z,28.91
2018-08-03T21:15:52.982Z,29.25
2018-08-03T21:17:31.657Z,28.88
2018-08-03T21:19:09.598Z,29.54
2018-08-03T21:20:49.514Z,29.01
2018-08-03T21:22:26.073Z,29.82
2018-08-03T21:24:07.726Z,29.75
2018-08-03T21:25:45.777Z,29.18
2018-08-03T21:27:25.601Z,29.62
2018-08-03T21:29:02.342Z,29.66
2018-08-03T21:30:41.970Z,30.00
2018-08-03T21:32:20.956Z,29.16